createdAt,value
2023-05-12T00:01:02.827Z,16.80
2023-05-12T00:03:32.401Z,19.05
2023-05-12T00:06:03.718Z,17.02
2023-05-12T00:08:33.775Z,16.90
2023-05-12T00:11:04.503Z,16.88
2023-05-12T00:13:34.076Z,18.45
2023-05-12T00:16:06.919Z,19.67
2023-05-12T00:18:36.455Z,18.17
2023-05-12T00:21:08.645Z,17.88
2023-05-12T00:23:38.702Z,18.15
2023-05-12T00:26:08.199Z,18.20
2023-05-12T00:28:37.596Z,17.40
2023-05-12T00:31:09.704Z,17.88
2023-05-12T00:33:39.174Z,19.05
2023-05-12T00:36:09.984Z,18.48
2023-05-12T00:38:39.453Z,16.23
2023-05-12T00:41:08.965Z,17.90
2023-05-12T00:43:38.449Z,17.90
2023-05-12T00:46:11.616Z,17.77
2023-05-12T00:48:41.208Z,18.00
2023-05-12T00:51:11.443Z,17.25
2023-05-12T00:53:49.020Z,16.83
2023-05-12T00:56:22.053Z,17.90
2023-05-12T00:58:51.612Z,18.97
2023-05-12T01:01:24.084Z,18.33
2023-05-12T01:03:56.315Z,19.60
2023-05-12T01:06:32.096Z,18.88
2023-05-12T01:09:02.388Z,19.70
2023-05-12T01:11:31.823Z,19.38
2023-05-12T01:14:01.810Z,17.98
2023-05-12T01:16:39.483Z,20.73
2023-05-12T01:19:13.140Z,18.77
2023-05-12T01:21:42.924Z,20.20
2023-05-12T01:24:14.868Z,19.15
2023-05-12T01:26:47.154Z,19.02
2023-05-12T01:29:16.941Z,20.05
2023-05-12T01:31:47.063Z,18.38
2023-05-12T01:34:18.655Z,18.08
2023-05-12T01:36:51.432Z,17.80
2023-05-12T01:39:20.944Z,19.63
2023-05-12T01:44:36.531Z,19.75
2023-05-12T01:47:10.011Z,19.33
2023-05-12T01:49:40.697Z,18.52
2023-05-12T01:52:14.278Z,17.90
2023-05-12T01:54:43.753Z,17.65
2023-05-12T01:57:17.124Z,18.50
2023-05-12T01:59:46.650Z,18.85
2023-05-12T02:02:16.318Z,17.45
2023-05-12T02:04:45.992Z,17.35
2023-05-12T02:07:16.097Z,18.55
2023-05-12T02:09:47.318Z,18.15
2023-05-12T02:12:19.517Z,17.63
2023-05-12T02:14:48.947Z,17.98
2023-05-12T02:17:18.444Z,18.55
2023-05-12T02:19:49.257Z,17.85
2023-05-12T02:22:18.795Z,17.92
2023-05-12T02:24:48.551Z,17.42
2023-05-12T02:27:21.675Z,17.38
2023-05-12T02:29:51.571Z,19.02
2023-05-12T02:32:21.801Z,17.58
2023-05-12T02:34:52.665Z,16.90
2023-05-12T02:37:22.443Z,17.15
2023-05-12T02:39:52.047Z,17.48
2023-05-12T02:42:24.526Z,17.98
2023-05-12T02:44:54.084Z,16.45
2023-05-12T02:47:23.483Z,16.33
2023-05-12T02:49:55.673Z,15.95
2023-05-12T02:52:25.150Z,16.73
2023-05-12T02:54:54.565Z,15.73
2023-05-12T02:57:32.180Z,15.23
2023-05-12T03:00:01.734Z,16.10
2023-05-12T03:02:31.438Z,16.52
2023-05-12T03:05:01.092Z,15.00
2023-05-12T03:07:31.036Z,15.65
2023-05-12T03:10:02.460Z,16.55
2023-05-12T03:12:36.194Z,15.43
2023-05-12T03:15:06.101Z,17.90
2023-05-12T03:17:36.282Z,15.82
2023-05-12T03:20:05.964Z,16.38
2023-05-12T03:22:35.622Z,15.95
2023-05-12T03:25:06.207Z,17.00
2023-05-12T03:27:38.268Z,17.00
2023-05-12T03:30:08.834Z,16.08
2023-05-12T03:32:40.020Z,16.05
2023-05-12T03:35:12.467Z,16.90
2023-05-12T03:37:42.001Z,15.40
2023-05-12T03:40:18.529Z,17.40
2023-05-12T03:42:52.164Z,15.70
2023-05-12T03:45:21.950Z,17.20
2023-05-12T03:47:52.264Z,16.15
2023-05-12T03:50:22.450Z,16.40
2023-05-12T03:52:56.119Z,15.85
2023-05-12T03:55:25.713Z,16.42
2023-05-12T03:57:57.679Z,14.73
2023-05-12T04:00:27.620Z,16.95
2023-05-12T04:02:57.099Z,15.93
2023-05-12T04:05:26.906Z,16.75
2023-05-12T04:07:56.355Z,15.25
2023-05-12T04:10:25.936Z,17.70
2023-05-12T04:12:57.979Z,16.48
2023-05-12T04:15:28.269Z,16.02
2023-05-12T04:17:57.846Z,16.67
2023-05-12T04:20:27.338Z,16.42
2023-05-12T04:22:56.915Z,17.38
2023-05-12T04:25:26.626Z,17.80
2023-05-12T04:27:58.668Z,17.70
2023-05-12T04:30:28.205Z,18.50
2023-05-12T04:32:57.692Z,17.02
2023-05-12T04:35:27.323Z,18.65
2023-05-12T04:37:57.512Z,18.27
2023-05-12T04:40:26.967Z,17.90
2023-05-12T04:42:59.198Z,18.30
2023-05-12T04:47:59.294Z,19.40
2023-05-12T04:50:28.812Z,18.63
2023-05-12T04:52:58.298Z,18.23
2023-05-12T04:55:27.802Z,17.77
2023-05-12T04:58:00.013Z,17.90
2023-05-12T05:00:29.562Z,18.55
2023-05-12T05:02:59.118Z,19.05
2023-05-12T05:05:28.708Z,18.73
2023-05-12T05:07:59.156Z,18.55
2023-05-12T05:10:28.677Z,18.30
2023-05-12T05:13:00.726Z,17.60
2023-05-12T05:18:02.184Z,17.98
2023-05-12T05:20:32.953Z,17.92
2023-05-12T05:23:02.872Z,17.33
2023-05-12T05:25:32.345Z,17.55
2023-05-12T05:28:05.298Z,17.40
2023-05-12T05:30:35.277Z,16.13
2023-05-12T05:33:04.924Z,16.48
2023-05-12T05:35:34.620Z,16.67
2023-05-12T05:38:04.325Z,17.05
2023-05-12T05:40:48.825Z,16.92
2023-05-12T05:43:24.767Z,15.05
2023-05-12T05:48:25.774Z,16.13
2023-05-12T05:50:56.444Z,15.70
2023-05-12T05:53:27.815Z,16.90
2023-05-12T05:55:57.602Z,15.40
2023-05-12T05:58:29.763Z,15.80
2023-05-12T06:01:00.461Z,15.10
2023-05-12T06:03:30.715Z,15.50
2023-05-12T06:06:00.364Z,15.60
2023-05-12T06:08:29.851Z,16.48
2023-05-12T06:10:59.287Z,15.93
2023-05-12T06:13:31.604Z,16.10
2023-05-12T06:16:01.052Z,14.70
2023-05-12T06:18:30.709Z,14.68
2023-05-12T06:21:00.216Z,13.35
2023-05-12T06:23:29.683Z,13.02
2023-05-12T06:25:59.285Z,13.13
2023-05-12T06:28:33.180Z,11.93
2023-05-12T06:31:02.632Z,12.85
2023-05-12T06:33:32.057Z,12.63
2023-05-12T06:36:01.484Z,13.85
2023-05-12T06:38:30.923Z,13.70
2023-05-12T06:48:32.548Z,13.07
2023-05-12T06:51:02.084Z,11.90
2023-05-12T06:53:32.564Z,12.05
2023-05-12T06:56:02.243Z,12.38
2023-05-12T06:58:33.117Z,11.57
2023-05-12T07:01:02.579Z,13.60
2023-05-12T07:03:36.658Z,10.93
2023-05-12T07:06:06.296Z,11.13
2023-05-12T07:08:35.802Z,10.30
2023-05-12T07:11:05.410Z,11.23
2023-05-12T07:13:34.875Z,10.32
2023-05-12T07:16:04.413Z,10.60
2023-05-12T07:18:36.905Z,10.45
2023-05-12T07:21:06.826Z,11.70
2023-05-12T07:23:36.954Z,9.57
2023-05-12T07:26:08.012Z,10.60
2023-05-12T07:28:38.619Z,9.70
2023-05-12T07:31:09.679Z,9.68
2023-05-12T07:33:41.880Z,9.35
2023-05-12T07:36:11.607Z,9.32
2023-05-12T07:38:41.180Z,8.60
2023-05-12T07:41:10.712Z,8.82
2023-05-12T07:43:40.179Z,9.05
2023-05-12T07:46:09.612Z,8.93
2023-05-12T07:48:41.627Z,8.43
2023-05-12T07:51:11.464Z,7.18
2023-05-12T07:53:40.983Z,7.40
2023-05-12T07:56:11.193Z,7.30
2023-05-12T07:58:40.605Z,6.88
2023-05-12T08:01:10.386Z,7.20
2023-05-12T08:06:17.840Z,6.80
2023-05-12T08:08:47.807Z,6.53
2023-05-12T08:11:17.219Z,6.30
2023-05-12T08:13:46.638Z,6.55
2023-05-12T08:16:16.174Z,6.47
2023-05-12T08:18:48.333Z,6.63
2023-05-12T08:21:17.846Z,6.75
2023-05-12T08:23:47.482Z,6.80
2023-05-12T08:26:17.220Z,6.47
2023-05-12T08:28:46.660Z,6.13
2023-05-12T08:31:16.468Z,7.50
2023-05-12T08:33:51.978Z,7.10
2023-05-12T08:36:29.014Z,6.85
2023-05-12T08:38:59.147Z,7.20
2023-05-12T08:41:39.808Z,6.50
2023-05-12T08:44:11.189Z,7.45
2023-05-12T08:46:41.371Z,7.07
2023-05-12T08:49:19.706Z,7.10
2023-05-12T08:51:57.918Z,7.25
2023-05-12T08:54:32.544Z,6.35
2023-05-12T08:59:59.548Z,6.80
2023-05-12T09:02:44.579Z,6.63
2023-05-12T09:05:21.312Z,7.30
2023-05-12T09:07:53.056Z,7.47
2023-05-12T09:13:03.137Z,6.78
2023-05-12T09:15:38.250Z,6.65
2023-05-12T09:18:08.065Z,6.40
2023-05-12T09:20:40.094Z,7.22
2023-05-12T09:23:20.430Z,6.85
2023-05-12T09:25:49.908Z,6.95
2023-05-12T09:28:19.352Z,6.38
2023-05-12T09:30:49.040Z,6.25
2023-05-12T09:33:18.498Z,6.68
2023-05-12T09:35:50.571Z,7.53
2023-05-12T09:38:19.962Z,6.90
2023-05-12T09:40:49.492Z,6.15
2023-05-12T09:43:19.393Z,6.22
2023-05-12T09:45:50.866Z,6.82
2023-05-12T09:48:20.506Z,6.00
2023-05-12T09:50:54.910Z,5.63
2023-05-12T09:53:24.417Z,5.63
2023-05-12T09:55:53.847Z,5.35
2023-05-12T09:58:23.698Z,5.65
2023-05-12T10:03:31.734Z,6.10
2023-05-12T10:06:07.868Z,5.32
2023-05-12T10:08:42.989Z,5.22
2023-05-12T10:11:13.562Z,5.60
2023-05-12T10:13:43.300Z,5.95
2023-05-12T10:16:13.114Z,5.53
2023-05-12T10:18:46.395Z,5.40
2023-05-12T10:21:19.065Z,5.25
2023-05-12T10:23:50.183Z,5.53
2023-05-12T10:26:21.677Z,5.18
2023-05-12T10:28:51.731Z,5.80
2023-05-12T10:31:22.745Z,5.88
2023-05-12T10:33:59.635Z,5.72
2023-05-12T10:36:32.036Z,5.88
2023-05-12T10:39:08.033Z,6.10
2023-05-12T10:41:38.633Z,5.60
2023-05-12T10:44:09.319Z,5.40
2023-05-12T10:46:39.303Z,4.63
2023-05-12T10:49:13.201Z,5.30
2023-05-12T10:51:52.626Z,5.20
2023-05-12T10:54:23.885Z,5.38
2023-05-12T10:56:55.383Z,5.60
2023-05-12T10:59:27.531Z,6.33
2023-05-12T11:04:45.941Z,5.22
2023-05-12T11:07:24.466Z,5.80
2023-05-12T11:09:59.080Z,4.90
2023-05-12T11:12:36.772Z,5.65
2023-05-12T11:17:37.382Z,5.82
2023-05-12T11:20:07.599Z,5.50
2023-05-12T11:22:39.674Z,5.90
2023-05-12T11:25:14.097Z,5.32
2023-05-12T11:27:49.703Z,5.57
2023-05-12T11:30:19.940Z,5.28
2023-05-12T11:32:49.498Z,4.90
2023-05-12T11:35:21.007Z,5.20
2023-05-12T11:37:53.231Z,4.80
2023-05-12T11:40:24.347Z,5.07
2023-05-12T11:42:56.358Z,5.05
2023-05-12T11:45:30.724Z,4.78
2023-05-12T11:48:11.618Z,4.65
2023-05-12T11:50:42.580Z,4.32
2023-05-12T11:53:19.553Z,4.40
2023-05-12T11:55:53.071Z,4.55
2023-05-12T11:58:26.083Z,4.20
2023-05-12T12:00:57.302Z,4.38
2023-05-12T12:03:28.057Z,4.70
2023-05-12T12:06:02.487Z,4.78
2023-05-12T12:08:34.530Z,4.53
2023-05-12T12:11:04.313Z,4.28
2023-05-12T12:13:34.011Z,4.55
2023-05-12T12:16:05.681Z,5.00
2023-05-12T12:18:35.329Z,4.97
2023-05-12T12:21:04.771Z,4.68
2023-05-12T12:23:49.944Z,4.65
2023-05-12T12:26:21.753Z,4.28
2023-05-12T12:28:52.034Z,4.25
2023-05-12T12:31:21.475Z,4.40
2023-05-12T12:33:50.931Z,5.05
2023-05-12T12:36:20.367Z,5.07
2023-05-12T12:38:52.472Z,4.47
2023-05-12T12:41:22.065Z,4.80
2023-05-12T12:43:51.470Z,4.65
2023-05-12T12:46:21.125Z,5.13
2023-05-12T12:48:50.604Z,4.20
2023-05-12T12:51:20.114Z,4.65
2023-05-12T12:53:52.144Z,4.30
2023-05-12T12:56:23.738Z,4.30
2023-05-12T12:58:54.650Z,4.25
2023-05-12T13:01:24.222Z,4.65
2023-05-12T13:03:53.743Z,3.90
2023-05-12T13:06:23.835Z,4.20
2023-05-12T13:08:56.676Z,4.20
2023-05-12T13:11:26.373Z,4.05
2023-05-12T13:13:55.896Z,3.63
2023-05-12T13:16:25.705Z,3.90
2023-05-12T13:18:55.328Z,3.50
2023-05-12T13:21:24.831Z,3.88
2023-05-12T13:26:32.380Z,3.38
2023-05-12T13:29:03.576Z,3.85
2023-05-12T13:31:33.090Z,3.55
2023-05-12T13:34:02.616Z,3.63
2023-05-12T13:36:34.600Z,3.40
2023-05-12T13:39:06.689Z,3.80
2023-05-12T13:41:36.192Z,3.63
2023-05-12T13:44:05.650Z,4.05
2023-05-12T13:46:35.183Z,4.15
2023-05-12T13:49:04.631Z,3.58
2023-05-12T13:51:34.724Z,3.75
2023-05-12T13:54:06.891Z,4.05
2023-05-12T13:56:36.406Z,3.55
2023-05-12T13:59:05.920Z,3.88
2023-05-12T14:01:35.936Z,3.35
2023-05-12T14:04:05.392Z,3.55
2023-05-12T14:06:34.972Z,3.70
2023-05-12T14:09:07.920Z,3.63
2023-05-12T14:11:37.896Z,3.83
2023-05-12T14:14:07.981Z,3.65
2023-05-12T14:16:37.723Z,3.90
2023-05-12T14:19:07.334Z,3.78
2023-05-12T14:21:36.802Z,3.58
2023-05-12T14:24:10.191Z,3.47
2023-05-12T14:30:24.583Z,5.22
2023-05-12T14:32:54.515Z,4.25
2023-05-12T14:35:27.825Z,3.67
2023-05-12T14:37:58.011Z,3.78
2023-05-12T14:40:30.303Z,3.42
2023-05-12T14:43:00.172Z,3.70
2023-05-12T14:45:31.676Z,3.33
2023-05-12T14:48:03.660Z,3.53
2023-05-12T14:50:33.165Z,3.35
2023-05-12T14:53:02.655Z,3.40
2023-05-12T14:55:34.684Z,3.42
2023-05-12T14:58:04.187Z,4.13
2023-05-12T15:00:34.620Z,3.70
2023-05-12T15:03:05.779Z,4.13
2023-05-12T15:05:52.727Z,3.25
2023-05-12T15:08:25.266Z,3.72
2023-05-12T15:19:17.650Z,3.90
2023-05-12T15:25:34.251Z,4.25
2023-05-12T15:35:33.680Z,3.22
2023-05-12T15:38:03.316Z,3.38
2023-05-12T15:40:35.473Z,3.80
2023-05-12T15:43:05.514Z,3.80
2023-05-12T15:45:37.362Z,4.38
2023-05-12T15:48:09.580Z,3.85
2023-05-12T15:50:39.431Z,4.20
2023-05-12T15:53:09.057Z,4.22
2023-05-12T16:14:25.588Z,3.83
2023-05-12T16:24:37.897Z,4.45
2023-05-12T16:27:08.188Z,4.10
2023-05-12T16:37:10.353Z,3.72
2023-05-12T16:39:40.034Z,3.72
2023-05-12T16:42:10.841Z,3.90
2023-05-12T16:44:40.475Z,3.63
2023-05-12T16:47:10.368Z,3.50
2023-05-12T16:49:40.107Z,3.60
2023-05-12T16:52:12.682Z,3.90
2023-05-12T16:57:12.003Z,3.33
2023-05-12T16:59:41.710Z,3.38
2023-05-12T17:02:15.664Z,3.80
2023-05-12T17:04:45.394Z,3.42
2023-05-12T17:07:17.634Z,3.50
2023-05-12T17:09:47.104Z,3.75
2023-05-12T17:12:16.850Z,3.75
2023-05-12T17:14:55.890Z,3.80
2023-05-12T17:17:33.454Z,4.15
2023-05-12T17:20:03.026Z,4.03
2023-05-12T17:22:37.397Z,3.60
2023-05-12T17:25:08.718Z,3.80
2023-05-12T17:27:38.191Z,3.60
2023-05-12T17:30:09.343Z,3.55
2023-05-12T17:32:39.009Z,4.07
2023-05-12T17:35:09.976Z,3.45
2023-05-12T17:37:42.571Z,3.50
2023-05-12T17:42:46.570Z,3.30
2023-05-12T17:45:16.894Z,3.67
2023-05-12T17:47:48.053Z,4.00
2023-05-12T17:50:17.726Z,3.22
2023-05-12T17:52:49.882Z,3.90
2023-05-12T17:55:19.587Z,3.80
2023-05-12T17:57:49.760Z,3.90
2023-05-12T18:00:19.880Z,3.42
2023-05-12T18:02:49.884Z,4.28
2023-05-12T18:05:19.808Z,3.95
2023-05-12T18:07:52.793Z,3.65
2023-05-12T18:10:22.401Z,4.07
2023-05-12T18:12:53.604Z,4.05
2023-05-12T18:15:24.695Z,3.72
2023-05-12T18:17:54.174Z,3.80
2023-05-12T18:20:23.912Z,3.60
2023-05-12T18:22:55.981Z,4.10
2023-05-12T18:25:25.484Z,4.20
2023-05-12T18:27:54.961Z,3.70
2023-05-12T18:30:24.423Z,3.88
2023-05-12T18:32:54.096Z,4.68
2023-05-12T18:35:24.910Z,3.78
2023-05-12T18:37:57.146Z,4.50
2023-05-12T18:40:26.625Z,3.60
2023-05-12T18:42:56.104Z,4.07
2023-05-12T18:45:25.598Z,3.85
2023-05-12T18:47:55.118Z,3.65
2023-05-12T18:50:24.700Z,3.78
2023-05-12T18:52:56.749Z,3.75
2023-05-12T18:55:26.432Z,3.78
2023-05-12T18:57:55.901Z,3.47
2023-05-12T19:00:27.659Z,3.65
2023-05-12T19:02:57.154Z,3.97
2023-05-12T19:05:26.899Z,3.72
2023-05-12T19:07:58.978Z,3.92
2023-05-12T19:10:29.448Z,3.83
2023-05-12T19:12:58.979Z,4.35
2023-05-12T19:15:31.278Z,4.47
2023-05-12T19:18:00.773Z,4.22
2023-05-12T19:20:30.864Z,4.20
2023-05-12T19:23:03.024Z,4.32
2023-05-12T19:25:32.525Z,4.13
2023-05-12T19:28:02.812Z,3.95
2023-05-12T19:30:32.271Z,4.07
2023-05-12T19:33:01.821Z,4.30
2023-05-12T19:35:31.655Z,4.50
2023-05-12T19:38:03.675Z,4.15
2023-05-12T19:40:33.283Z,4.07
2023-05-12T19:43:05.185Z,5.03
2023-05-12T19:45:34.820Z,4.38
2023-05-12T19:48:04.414Z,4.78
2023-05-12T19:50:34.103Z,4.35
2023-05-12T19:53:06.235Z,4.60
2023-05-12T19:55:36.291Z,4.18
2023-05-12T19:58:05.807Z,4.50
2023-05-12T20:00:37.007Z,4.82
2023-05-12T20:03:08.670Z,5.10
2023-05-12T20:05:39.177Z,4.85
2023-05-12T20:08:11.548Z,4.35
2023-05-12T20:10:41.213Z,3.78
2023-05-12T20:13:10.720Z,4.65
2023-05-12T20:15:40.319Z,4.00
2023-05-12T20:18:11.299Z,4.35
2023-05-12T20:20:40.918Z,4.60
2023-05-12T20:23:13.029Z,4.43
2023-05-12T20:25:42.544Z,4.32
2023-05-12T20:28:12.144Z,4.97
2023-05-12T20:30:41.604Z,4.57
2023-05-12T20:37:36.121Z,4.47
2023-05-12T20:47:58.716Z,4.88
2023-05-12T20:54:13.043Z,5.20
2023-05-12T20:56:42.521Z,4.65
2023-05-12T20:59:11.982Z,4.70
2023-05-12T21:01:41.733Z,4.70
2023-05-12T21:04:13.843Z,4.68
2023-05-12T21:06:43.434Z,4.72
2023-05-12T21:09:12.916Z,4.47
2023-05-12T21:11:42.411Z,4.57
2023-05-12T21:14:11.883Z,4.65
2023-05-12T21:16:41.479Z,5.55
2023-05-12T21:19:13.582Z,4.75
2023-05-12T21:21:43.106Z,4.75
2023-05-12T21:24:12.630Z,4.43
2023-05-12T21:26:42.106Z,4.47
2023-05-12T21:29:11.586Z,4.78
2023-05-12T21:31:41.093Z,5.07
2023-05-12T21:34:13.224Z,4.45
2023-05-12T21:36:42.763Z,4.80
2023-05-12T21:39:12.505Z,4.70
2023-05-12T21:41:42.346Z,5.18
2023-05-12T21:44:12.257Z,4.60
2023-05-12T21:46:42.759Z,4.35
2023-05-12T21:49:14.990Z,4.65
2023-05-12T21:51:44.694Z,4.70
2023-05-12T21:54:14.215Z,4.72
2023-05-12T21:56:43.681Z,4.72
2023-05-12T21:59:13.205Z,4.55
2023-05-12T22:01:42.767Z,4.78
2023-05-12T22:04:15.191Z,4.85
2023-05-12T22:06:44.773Z,4.80
2023-05-12T22:09:14.481Z,4.65
2023-05-12T22:11:45.080Z,4.38
2023-05-12T22:14:14.541Z,5.10
2023-05-12T22:16:44.042Z,4.60
2023-05-12T22:19:16.574Z,4.57
2023-05-12T22:21:46.288Z,4.43
2023-05-12T22:24:15.734Z,5.03
2023-05-12T22:26:45.216Z,4.70
2023-05-12T22:29:14.639Z,4.53
2023-05-12T22:31:44.429Z,4.40
2023-05-12T22:34:16.520Z,4.60
2023-05-12T22:36:46.042Z,4.85
2023-05-12T22:39:16.017Z,4.20
2023-05-12T22:41:45.441Z,5.00
2023-05-12T22:44:14.943Z,5.05
2023-05-12T22:46:44.504Z,5.13
2023-05-12T22:49:16.675Z,4.82
2023-05-12T22:51:46.099Z,5.20
2023-05-12T22:54:15.849Z,5.05
2023-05-12T22:56:45.350Z,4.65
2023-05-12T22:59:14.796Z,4.40
2023-05-12T23:01:44.685Z,5.03
2023-05-12T23:04:16.783Z,4.60
2023-05-12T23:06:46.318Z,4.80
2023-05-12T23:09:16.020Z,4.82
2023-05-12T23:11:45.476Z,5.00
2023-05-12T23:14:14.985Z,4.82
2023-05-12T23:16:44.463Z,4.43
2023-05-12T23:19:16.625Z,4.85
2023-05-12T23:21:46.112Z,4.82
2023-05-12T23:24:15.658Z,5.78
2023-05-12T23:26:45.106Z,4.65
2023-05-12T23:29:14.625Z,5.18
2023-05-12T23:31:44.122Z,4.75
2023-05-12T23:34:16.209Z,5.28
2023-05-12T23:36:45.690Z,5.07
2023-05-12T23:39:15.369Z,5.15
2023-05-12T23:41:45.713Z,4.75
2023-05-12T23:44:15.486Z,5.05
2023-05-12T23:46:45.026Z,4.68
2023-05-12T23:49:17.358Z,5.65
2023-05-12T23:51:46.833Z,5.43
2023-05-12T23:54:16.368Z,5.38
2023-05-12T23:56:45.813Z,4.93
2023-05-12T23:59:15.320Z,4.93
